createdAt,value
2022-09-10T00:01:28.327Z,1.40
2022-09-10T00:03:56.433Z,1.58
2022-09-10T00:06:27.700Z,1.65
2022-09-10T00:08:58.961Z,1.42
2022-09-10T00:11:27.991Z,1.40
2022-09-10T00:13:55.519Z,1.65
2022-09-10T00:16:22.173Z,1.63
2022-09-10T00:18:49.020Z,1.58
2022-09-10T00:21:18.609Z,1.80
2022-09-10T00:23:45.711Z,1.60
2022-09-10T00:26:23.353Z,1.60
2022-09-10T00:28:51.665Z,1.60
2022-09-10T00:31:19.697Z,1.42
2022-09-10T00:33:46.205Z,1.48
2022-09-10T00:36:36.048Z,1.38
2022-09-10T00:39:06.527Z,1.60
2022-09-10T00:41:35.132Z,1.52
2022-09-10T00:44:04.945Z,2.00
2022-09-10T00:46:35.423Z,1.42
2022-09-10T00:49:09.995Z,1.75
2022-09-10T00:51:36.934Z,1.60
2022-09-10T00:54:05.571Z,1.65
2022-09-10T00:56:34.448Z,1.48
2022-09-10T00:59:02.748Z,1.65
2022-09-10T01:01:29.185Z,1.50
2022-09-10T01:03:56.014Z,1.65
2022-09-10T01:06:23.068Z,1.85
2022-09-10T01:08:49.604Z,1.45
2022-09-10T01:11:34.625Z,1.55
2022-09-10T01:14:06.966Z,1.95
2022-09-10T01:17:03.447Z,1.75
2022-09-10T01:19:41.331Z,2.08
2022-09-10T01:22:35.557Z,1.70
2022-09-10T01:25:31.215Z,2.15
2022-09-10T01:28:04.984Z,1.80
2022-09-10T01:30:42.337Z,1.98
2022-09-10T01:33:16.334Z,2.08
2022-09-10T01:35:47.757Z,2.22
2022-09-10T01:38:20.515Z,1.80
2022-09-10T01:40:47.737Z,2.05
2022-09-10T01:43:14.839Z,1.70
2022-09-10T01:45:47.234Z,2.20
2022-09-10T01:48:44.667Z,1.80
2022-09-10T01:51:40.999Z,2.35
2022-09-10T01:54:33.535Z,2.00
2022-09-10T02:04:24.069Z,2.35
2022-09-10T02:06:51.534Z,2.22
2022-09-10T02:09:19.163Z,2.70
2022-09-10T02:11:51.840Z,2.42
2022-09-10T02:14:18.299Z,2.35
2022-09-10T02:16:51.375Z,2.97
2022-09-10T02:19:18.119Z,2.10
2022-09-10T02:21:44.862Z,2.60
2022-09-10T02:24:12.857Z,2.22
2022-09-10T02:26:42.750Z,2.75
2022-09-10T02:29:11.043Z,2.05
2022-09-10T02:31:37.524Z,2.60
2022-09-10T02:34:03.971Z,2.25
2022-09-10T02:36:31.808Z,2.40
2022-09-10T02:39:00.264Z,2.30
2022-09-10T02:41:26.582Z,2.60
2022-09-10T02:43:53.052Z,2.00
2022-09-10T02:46:20.019Z,2.10
2022-09-10T02:48:46.352Z,2.53
2022-09-10T02:51:13.071Z,2.05
2022-09-10T02:53:39.615Z,2.58
2022-09-10T02:56:07.708Z,2.85
2022-09-10T02:58:34.629Z,2.35
2022-09-10T03:01:16.625Z,1.98
2022-09-10T03:03:43.013Z,2.20
2022-09-10T03:06:09.919Z,2.05
2022-09-10T03:08:36.378Z,2.40
2022-09-10T03:11:04.926Z,2.13
2022-09-10T03:13:31.287Z,1.88
2022-09-10T03:16:03.908Z,2.53
2022-09-10T03:18:31.779Z,1.95
2022-09-10T03:21:09.851Z,2.47
2022-09-10T03:23:37.473Z,2.33
2022-09-10T03:26:06.027Z,2.30
2022-09-10T03:28:33.426Z,1.83
2022-09-10T03:31:01.154Z,2.28
2022-09-10T03:33:28.456Z,2.05
2022-09-10T03:35:55.210Z,2.50
2022-09-10T03:38:22.274Z,2.30
2022-09-10T03:40:49.167Z,2.83
2022-09-10T03:43:16.529Z,2.80
2022-09-10T03:45:44.069Z,2.88
2022-09-10T03:48:11.042Z,2.80
2022-09-10T03:50:37.471Z,2.35
2022-09-10T03:53:03.948Z,2.90
2022-09-10T03:55:30.384Z,2.80
2022-09-10T03:57:58.156Z,3.30
2022-09-10T04:00:24.524Z,2.92
2022-09-10T04:02:50.839Z,3.50
2022-09-10T04:05:17.434Z,3.42
2022-09-10T04:07:43.996Z,3.38
2022-09-10T04:10:10.887Z,3.67
2022-09-10T04:12:37.685Z,3.20
2022-09-10T04:15:04.635Z,2.83
2022-09-10T04:17:31.332Z,3.78
2022-09-10T04:19:57.715Z,3.65
2022-09-10T04:22:24.646Z,2.80
2022-09-10T04:24:51.183Z,3.13
2022-09-10T04:27:17.507Z,2.92
2022-09-10T04:29:43.978Z,2.92
2022-09-10T04:32:10.556Z,3.00
2022-09-10T04:34:36.942Z,3.03
2022-09-10T04:37:03.384Z,2.47
2022-09-10T04:39:29.889Z,2.60
2022-09-10T04:41:56.369Z,2.80
2022-09-10T04:44:22.710Z,2.75
2022-09-10T04:46:49.067Z,2.92
2022-09-10T04:49:15.420Z,2.15
2022-09-10T04:51:41.842Z,2.95
2022-09-10T04:54:08.201Z,2.35
2022-09-10T04:56:34.846Z,2.42
2022-09-10T04:59:01.236Z,2.83
2022-09-10T05:01:28.852Z,2.65
2022-09-10T05:03:55.247Z,2.95
2022-09-10T05:06:21.680Z,2.85
2022-09-10T05:08:48.007Z,2.35
2022-09-10T05:11:14.380Z,3.22
2022-09-10T05:13:41.555Z,2.45
2022-09-10T05:16:07.952Z,2.30
2022-09-10T05:18:34.506Z,2.38
2022-09-10T05:21:00.864Z,2.60
2022-09-10T05:23:27.247Z,3.08
2022-09-10T05:25:53.950Z,2.40
2022-09-10T05:28:21.803Z,2.28
2022-09-10T05:30:51.742Z,2.22
2022-09-10T05:33:18.393Z,2.50
2022-09-10T05:35:44.739Z,2.72
2022-09-10T05:38:14.040Z,2.17
2022-09-10T05:40:42.422Z,2.17
2022-09-10T05:43:08.909Z,2.63
2022-09-10T05:45:35.313Z,2.38
2022-09-10T05:48:02.950Z,2.33
2022-09-10T05:50:30.254Z,2.30
2022-09-10T05:52:56.708Z,2.42
2022-09-10T05:55:23.118Z,2.22
2022-09-10T05:57:49.478Z,2.25
2022-09-10T06:00:15.981Z,2.47
2022-09-10T06:02:42.515Z,2.20
2022-09-10T06:05:09.238Z,2.00
2022-09-10T06:07:35.632Z,2.22
2022-09-10T06:10:02.004Z,1.73
2022-09-10T06:12:28.381Z,1.95
2022-09-10T06:14:54.765Z,2.20
2022-09-10T06:17:21.139Z,1.90
2022-09-10T06:19:47.498Z,1.80
2022-09-10T06:22:14.432Z,1.80
2022-09-10T06:24:40.812Z,2.03
2022-09-10T06:27:07.186Z,2.17
2022-09-10T06:29:36.021Z,2.28
2022-09-10T06:32:03.057Z,2.00
2022-09-10T06:34:29.381Z,2.17
2022-09-10T06:36:58.130Z,1.98
2022-09-10T06:39:24.960Z,2.10
2022-09-10T06:41:51.445Z,2.03
2022-09-10T06:44:18.286Z,1.95
2022-09-10T06:47:25.761Z,1.83
2022-09-10T06:49:31.273Z,1.70
2022-09-10T06:51:57.741Z,1.83
2022-09-10T06:54:25.418Z,1.80
2022-09-10T06:56:52.714Z,1.77
2022-09-10T06:59:19.283Z,1.80
2022-09-10T07:01:47.523Z,1.80
2022-09-10T07:04:14.088Z,1.80
2022-09-10T07:06:40.423Z,1.73
2022-09-10T07:09:06.854Z,1.63
2022-09-10T07:11:35.081Z,1.30
2022-09-10T07:14:03.308Z,1.52
2022-09-10T07:16:29.707Z,1.40
2022-09-10T07:18:58.277Z,2.40
2022-09-10T07:21:28.049Z,1.40
2022-09-10T07:23:58.565Z,1.30
2022-09-10T07:26:25.766Z,1.50
2022-09-10T07:28:52.530Z,1.10
2022-09-10T07:31:33.858Z,1.10
2022-09-10T07:34:04.170Z,1.00
2022-09-10T07:36:30.646Z,1.10
2022-09-10T07:38:58.878Z,1.00
2022-09-10T07:41:29.751Z,0.80
2022-09-10T07:43:56.957Z,0.90
2022-09-10T07:46:25.415Z,0.70
2022-09-10T07:48:57.523Z,0.90
2022-09-10T07:51:25.294Z,1.00
2022-09-10T07:53:53.998Z,0.85
2022-09-10T07:56:20.537Z,0.95
2022-09-10T07:58:47.137Z,1.00
2022-09-10T08:01:13.665Z,0.90
2022-09-10T08:03:41.459Z,0.90
2022-09-10T08:06:09.364Z,0.93
2022-09-10T08:08:38.248Z,0.80
2022-09-10T08:11:12.246Z,0.80
2022-09-10T08:13:44.975Z,1.00
2022-09-10T08:16:17.136Z,0.82
2022-09-10T08:18:43.692Z,0.98
2022-09-10T08:21:10.654Z,0.90
2022-09-10T08:23:39.444Z,0.80
2022-09-10T08:26:08.369Z,0.75
2022-09-10T08:28:35.881Z,0.70
2022-09-10T08:31:04.238Z,0.90
2022-09-10T08:33:35.114Z,0.93
2022-09-10T08:36:02.565Z,1.42
2022-09-10T08:38:34.565Z,0.80
2022-09-10T08:41:02.607Z,0.70
2022-09-10T08:43:49.039Z,0.80
2022-09-10T08:46:23.326Z,0.80
2022-09-10T08:49:00.920Z,0.70
2022-09-10T08:51:29.951Z,0.80
2022-09-10T08:54:14.791Z,0.90
2022-09-10T08:56:42.486Z,0.70
2022-09-10T08:59:46.745Z,0.80
2022-09-10T09:02:47.273Z,0.82
2022-09-10T09:05:22.746Z,0.75
2022-09-10T09:07:51.019Z,0.88
2022-09-10T09:10:56.387Z,0.93
2022-09-10T09:13:48.771Z,0.90
2022-09-10T09:16:41.302Z,0.90
2022-09-10T09:19:18.115Z,0.85
2022-09-10T09:21:54.501Z,0.80
2022-09-10T09:24:36.582Z,0.90
2022-09-10T09:27:10.006Z,0.80
2022-09-10T09:29:46.160Z,0.88
2022-09-10T09:32:16.565Z,0.90
2022-09-10T09:34:51.787Z,0.80
2022-09-10T09:37:24.056Z,0.70
2022-09-10T09:40:05.848Z,0.98
2022-09-10T09:42:59.205Z,0.95
2022-09-10T09:45:38.989Z,1.13
2022-09-10T09:48:07.219Z,1.10
2022-09-10T09:50:38.694Z,1.00
2022-09-10T09:53:05.047Z,0.95
2022-09-10T09:55:35.947Z,0.90
2022-09-10T09:58:20.866Z,1.13
2022-09-10T10:01:05.838Z,0.98
2022-09-10T10:03:35.343Z,1.38
2022-09-10T10:06:06.824Z,1.48
2022-09-10T10:08:42.485Z,1.00
2022-09-10T10:11:12.195Z,1.33
2022-09-10T10:13:41.666Z,1.67
2022-09-10T10:16:22.423Z,1.60
2022-09-10T10:18:50.211Z,1.30
2022-09-10T10:21:16.540Z,1.48
2022-09-10T10:23:44.044Z,1.42
2022-09-10T10:26:21.072Z,1.58
2022-09-10T10:28:50.176Z,1.80
2022-09-10T10:31:18.130Z,1.70
2022-09-10T10:34:20.398Z,1.88
2022-09-10T10:37:03.541Z,1.88
2022-09-10T10:39:52.336Z,2.13
2022-09-10T10:42:46.697Z,1.90
2022-09-10T10:45:37.132Z,1.73
2022-09-10T10:48:09.951Z,1.20
2022-09-10T10:50:54.813Z,1.30
2022-09-10T10:53:43.548Z,1.60
2022-09-10T10:56:35.972Z,1.50
2022-09-10T10:59:16.429Z,1.48
2022-09-10T11:01:51.031Z,2.10
2022-09-10T11:04:30.078Z,1.58
2022-09-10T11:07:05.502Z,1.95
2022-09-10T11:09:38.858Z,1.63
2022-09-10T11:12:11.849Z,1.73
2022-09-10T11:15:02.387Z,1.67
2022-09-10T11:17:47.118Z,2.13
2022-09-10T11:20:28.923Z,2.03
2022-09-10T11:22:59.098Z,1.60
2022-09-10T11:25:34.280Z,1.85
2022-09-10T11:28:13.470Z,1.70
2022-09-10T11:30:45.076Z,1.70
2022-09-10T11:33:23.228Z,1.80
2022-09-10T11:36:20.613Z,1.58
2022-09-10T11:39:11.820Z,1.75
2022-09-10T11:41:42.209Z,1.80
2022-09-10T11:45:02.891Z,1.85
2022-09-10T11:47:44.594Z,1.63
2022-09-10T11:50:21.536Z,1.90
2022-09-10T11:52:48.594Z,1.70
2022-09-10T11:55:17.378Z,1.50
2022-09-10T11:58:03.049Z,1.38
2022-09-10T12:00:34.747Z,1.77
2022-09-10T12:04:01.982Z,1.50
2022-09-10T12:07:03.340Z,1.58
2022-09-10T12:09:48.726Z,1.92
2022-09-10T12:14:47.412Z,2.85
2022-09-10T12:17:18.507Z,1.60
2022-09-10T12:19:49.698Z,1.52
2022-09-10T12:22:24.575Z,1.50
2022-09-10T12:24:55.420Z,1.75
2022-09-10T12:27:43.631Z,1.80
2022-09-10T12:30:35.975Z,1.50
2022-09-10T12:33:24.552Z,1.55
2022-09-10T12:35:52.167Z,1.50
2022-09-10T12:38:48.251Z,2.00
2022-09-10T12:41:20.960Z,1.65
2022-09-10T12:43:47.246Z,1.90
2022-09-10T12:46:13.573Z,1.75
2022-09-10T12:48:47.345Z,1.70
2022-09-10T12:51:46.139Z,1.75
2022-09-10T12:55:00.519Z,2.22
2022-09-10T12:57:41.477Z,2.00
2022-09-10T13:00:22.355Z,2.05
2022-09-10T13:03:11.237Z,2.00
2022-09-10T13:05:51.239Z,1.70
2022-09-10T13:08:21.435Z,2.08
2022-09-10T13:11:08.602Z,1.88
2022-09-10T13:13:43.648Z,1.65
2022-09-10T13:18:41.873Z,1.73
2022-09-10T13:21:40.691Z,2.25
2022-09-10T13:24:35.918Z,1.90
2022-09-10T13:27:16.983Z,1.98
2022-09-10T13:29:53.733Z,2.20
2022-09-10T13:32:55.114Z,2.15
2022-09-10T13:36:06.677Z,2.17
2022-09-10T13:39:12.106Z,2.03
2022-09-10T13:42:03.139Z,1.70
2022-09-10T13:44:45.175Z,1.83
2022-09-10T13:47:28.031Z,1.75
2022-09-10T13:50:00.424Z,1.70
2022-09-10T13:52:35.024Z,1.80
2022-09-10T13:55:05.086Z,2.00
2022-09-10T13:57:38.766Z,2.80
2022-09-10T14:00:08.779Z,2.20
2022-09-10T14:02:47.718Z,2.20
2022-09-10T14:05:31.742Z,2.03
2022-09-10T14:08:02.987Z,2.45
2022-09-10T14:10:29.506Z,2.42
2022-09-10T14:12:57.830Z,3.15
2022-09-10T14:15:29.971Z,2.63
2022-09-10T14:17:59.557Z,2.80
2022-09-10T14:20:34.875Z,2.88
2022-09-10T14:23:07.607Z,3.10
2022-09-10T14:25:36.591Z,2.55
2022-09-10T14:28:19.048Z,3.28
2022-09-10T14:30:48.551Z,3.30
2022-09-10T14:33:20.820Z,3.30
2022-09-10T14:35:51.368Z,3.13
2022-09-10T14:38:29.034Z,3.13
2022-09-10T14:41:05.431Z,3.47
2022-09-10T14:43:35.547Z,3.20
2022-09-10T14:46:04.019Z,3.13
2022-09-10T14:48:38.455Z,3.03
2022-09-10T14:51:14.404Z,3.08
2022-09-10T14:53:42.119Z,3.30
2022-09-10T14:56:23.121Z,3.80
2022-09-10T14:59:03.169Z,3.40
2022-09-10T15:01:30.543Z,3.28
2022-09-10T15:03:57.711Z,3.20
2022-09-10T15:06:26.587Z,3.33
2022-09-10T15:08:55.858Z,3.25
2022-09-10T15:11:24.981Z,3.20
2022-09-10T15:13:52.582Z,3.58
2022-09-10T15:16:18.901Z,4.18
2022-09-10T15:18:45.241Z,3.40
2022-09-10T15:21:14.901Z,3.78
2022-09-10T15:23:42.088Z,3.05
2022-09-10T15:26:11.998Z,3.50
2022-09-10T15:28:38.424Z,3.72
2022-09-10T15:31:05.643Z,4.30
2022-09-10T15:33:32.151Z,4.38
2022-09-10T15:35:58.555Z,4.35
2022-09-10T15:38:25.123Z,4.50
2022-09-10T15:40:52.127Z,4.40
2022-09-10T15:43:19.901Z,4.25
2022-09-10T15:45:47.439Z,3.70
2022-09-10T15:48:13.836Z,4.00
2022-09-10T15:50:41.599Z,4.68
2022-09-10T15:53:11.770Z,5.03
2022-09-10T15:55:38.912Z,4.72
2022-09-10T15:58:05.448Z,4.57
2022-09-10T16:00:34.232Z,4.43
2022-09-10T16:03:00.863Z,4.55
2022-09-10T16:05:27.228Z,4.88
2022-09-10T16:07:53.571Z,4.80
2022-09-10T16:10:19.993Z,5.07
2022-09-10T16:12:46.344Z,4.85
2022-09-10T16:15:12.712Z,4.80
2022-09-10T16:17:39.064Z,4.65
2022-09-10T16:20:05.795Z,4.85
2022-09-10T16:22:32.212Z,4.88
2022-09-10T16:24:58.539Z,5.18
2022-09-10T16:27:24.942Z,5.10
2022-09-10T16:29:51.315Z,4.72
2022-09-10T16:32:17.753Z,4.78
2022-09-10T16:34:44.099Z,4.65
2022-09-10T16:37:10.424Z,4.38
2022-09-10T16:39:36.822Z,4.25
2022-09-10T16:42:03.412Z,4.40
2022-09-10T16:44:30.296Z,4.22
2022-09-10T16:46:59.183Z,5.80
2022-09-10T16:49:25.509Z,4.45
2022-09-10T16:51:51.849Z,4.10
2022-09-10T16:54:22.356Z,4.05
2022-09-10T16:56:50.113Z,3.53
2022-09-10T16:59:22.190Z,3.85
2022-09-10T17:01:50.050Z,4.22
2022-09-10T17:04:21.390Z,4.13
2022-09-10T17:06:51.045Z,4.20
2022-09-10T17:09:17.403Z,4.00
2022-09-10T17:11:43.757Z,4.72
2022-09-10T17:14:11.374Z,3.92
2022-09-10T17:16:40.359Z,4.22
2022-09-10T17:19:10.855Z,4.30
2022-09-10T17:21:39.144Z,3.85
2022-09-10T17:24:07.668Z,3.80
2022-09-10T17:26:37.036Z,4.00
2022-09-10T17:29:06.349Z,3.95
2022-09-10T17:31:33.731Z,3.47
2022-09-10T17:34:00.881Z,4.10
2022-09-10T17:36:27.982Z,4.32
2022-09-10T17:38:55.303Z,3.80
2022-09-10T17:41:23.486Z,4.32
2022-09-10T17:43:49.844Z,4.18
2022-09-10T17:46:18.981Z,4.35
2022-09-10T17:48:45.808Z,4.57
2022-09-10T17:51:14.617Z,4.22
2022-09-10T17:53:41.075Z,4.57
2022-09-10T17:56:10.126Z,4.10
2022-09-10T17:58:36.820Z,3.60
2022-09-10T18:01:10.307Z,3.85
2022-09-10T18:03:36.773Z,4.18
2022-09-10T18:06:11.119Z,3.90
2022-09-10T18:08:39.048Z,3.97
2022-09-10T18:11:11.343Z,4.15
2022-09-10T18:13:37.927Z,4.00
2022-09-10T18:16:09.515Z,3.70
2022-09-10T18:18:36.904Z,3.72
2022-09-10T18:21:10.382Z,3.67
2022-09-10T18:23:36.718Z,4.22
2022-09-10T18:26:14.994Z,4.65
2022-09-10T18:28:42.906Z,5.13
2022-09-10T18:31:09.951Z,4.82
2022-09-10T18:33:40.839Z,4.30
2022-09-10T18:36:13.227Z,4.70
2022-09-10T18:38:40.050Z,4.80
2022-09-10T18:41:16.894Z,3.50
2022-09-10T18:43:43.243Z,2.65
2022-09-10T18:46:09.800Z,2.58
2022-09-10T18:48:36.215Z,3.42
2022-09-10T18:51:10.573Z,4.13
2022-09-10T18:53:38.404Z,6.07
2022-09-10T18:56:16.078Z,6.00
2022-09-10T18:58:48.612Z,5.97
2022-09-10T19:01:15.762Z,7.60
2022-09-10T19:03:44.239Z,7.80
2022-09-10T19:06:13.550Z,8.80
2022-09-10T19:08:45.657Z,10.50
2022-09-10T19:11:17.157Z,11.57
2022-09-10T19:13:48.501Z,11.98
2022-09-10T19:16:15.030Z,11.93
2022-09-10T19:18:43.590Z,12.52
2022-09-10T19:21:10.435Z,13.07
2022-09-10T19:23:37.063Z,12.82
2022-09-10T19:26:03.855Z,13.57
2022-09-10T19:28:33.436Z,13.45
2022-09-10T19:31:04.819Z,14.15
2022-09-10T19:33:36.234Z,13.93
2022-09-10T19:36:04.947Z,15.05
2022-09-10T19:38:47.166Z,15.55
2022-09-10T19:41:18.584Z,14.82
2022-09-10T19:43:46.946Z,15.25
2022-09-10T19:46:15.242Z,15.68
2022-09-10T19:48:43.355Z,17.20
2022-09-10T19:51:13.388Z,16.17
2022-09-10T19:53:40.875Z,14.93
2022-09-10T19:56:10.171Z,15.35
2022-09-10T19:58:37.316Z,14.80
2022-09-10T20:01:15.538Z,15.27
2022-09-10T20:03:46.992Z,14.77
2022-09-10T20:06:19.331Z,14.43
2022-09-10T20:08:47.096Z,14.85
2022-09-10T20:11:25.558Z,14.10
2022-09-10T20:13:57.515Z,15.25
2022-09-10T20:16:24.986Z,15.23
2022-09-10T20:18:51.901Z,13.65
2022-09-10T20:21:20.541Z,13.60
2022-09-10T20:23:49.263Z,14.30
2022-09-10T20:26:18.447Z,13.52
2022-09-10T20:28:45.166Z,13.60
2022-09-10T20:31:12.751Z,14.10
2022-09-10T20:33:42.221Z,13.95
2022-09-10T20:36:16.976Z,14.75
2022-09-10T20:38:44.185Z,15.70
2022-09-10T20:41:15.754Z,17.33
2022-09-10T20:43:42.597Z,17.40
2022-09-10T20:46:16.950Z,17.08
2022-09-10T20:48:48.845Z,17.05
2022-09-10T20:51:17.934Z,18.30
2022-09-10T20:53:44.889Z,17.60
2022-09-10T20:56:14.059Z,18.85
2022-09-10T20:58:41.508Z,18.88
2022-09-10T21:01:12.190Z,18.65
2022-09-10T21:03:40.762Z,18.83
2022-09-10T21:06:08.563Z,20.63
2022-09-10T21:08:36.573Z,19.77
2022-09-10T21:11:08.319Z,22.83
2022-09-10T21:13:36.325Z,20.75
2022-09-10T21:16:21.040Z,21.33
2022-09-10T21:18:54.394Z,20.20
2022-09-10T21:21:25.342Z,20.75
2022-09-10T21:23:55.870Z,23.13
2022-09-10T21:26:25.193Z,23.00
2022-09-10T21:28:57.037Z,21.70
2022-09-10T21:31:23.888Z,20.98
2022-09-10T21:33:50.894Z,22.83
2022-09-10T21:36:19.664Z,22.95
2022-09-10T21:38:47.403Z,23.40
2022-09-10T21:41:15.876Z,24.38
2022-09-10T21:43:47.331Z,24.23
2022-09-10T21:46:14.448Z,25.10
2022-09-10T21:48:42.142Z,24.15
2022-09-10T21:51:13.133Z,26.70
2022-09-10T21:53:41.022Z,26.55
2022-09-10T21:56:07.927Z,25.15
2022-09-10T21:58:36.506Z,26.40
2022-09-10T22:01:08.630Z,28.10
2022-09-10T22:03:35.980Z,25.90
2022-09-10T22:06:15.108Z,26.40
2022-09-10T22:08:43.573Z,27.35
2022-09-10T22:11:19.089Z,27.67
2022-09-10T22:13:51.730Z,28.55
2022-09-10T22:16:18.385Z,28.65
2022-09-10T22:18:45.239Z,28.73
2022-09-10T22:21:11.622Z,28.77
2022-09-10T22:23:39.080Z,28.70
2022-09-10T22:26:08.574Z,29.63
2022-09-10T22:28:35.967Z,28.42
2022-09-10T22:31:19.006Z,30.50
2022-09-10T22:33:50.763Z,29.42
2022-09-10T22:36:23.575Z,29.35
2022-09-10T22:38:56.141Z,30.23
2022-09-10T22:41:23.049Z,27.92
2022-09-10T22:43:50.427Z,32.08
2022-09-10T22:46:17.425Z,30.50
2022-09-10T22:48:45.425Z,29.65
2022-09-10T22:51:14.282Z,29.80
2022-09-10T22:53:42.216Z,32.97
2022-09-10T22:56:09.901Z,29.10
2022-09-10T22:58:36.610Z,27.45
2022-09-10T23:01:08.857Z,30.10
2022-09-10T23:03:35.246Z,28.10
2022-09-10T23:06:06.785Z,30.10
2022-09-10T23:08:34.651Z,29.23
2022-09-10T23:11:10.153Z,29.35
2022-09-10T23:13:37.030Z,28.85
2022-09-10T23:16:17.614Z,29.48
2022-09-10T23:18:48.430Z,28.05
2022-09-10T23:21:14.795Z,29.13
2022-09-10T23:23:45.002Z,28.60
2022-09-10T23:26:12.131Z,28.75
2022-09-10T23:28:40.046Z,30.00
2022-09-10T23:31:10.631Z,28.20
2022-09-10T23:33:37.087Z,29.30
2022-09-10T23:36:03.630Z,31.17
2022-09-10T23:38:31.398Z,29.70
2022-09-10T23:41:01.341Z,30.15
2022-09-10T23:43:28.704Z,30.80
2022-09-10T23:45:55.422Z,31.35
2022-09-10T23:48:25.298Z,30.88
2022-09-10T23:50:53.114Z,30.35
2022-09-10T23:53:20.453Z,30.67
2022-09-10T23:55:47.477Z,29.80
2022-09-10T23:58:15.349Z,30.20
